sensor_id;sensor_type;location;lat;lon;timestamp;temperature;humidity
15364;DHT22;7781;49.690;6.472;2022-12-18T00:00:32;-10.10;99.90
15364;DHT22;7781;49.690;6.472;2022-12-18T00:03:04;-10.10;99.90
15364;DHT22;7781;49.690;6.472;2022-12-18T00:05:33;-10.10;99.90
15364;DHT22;7781;49.690;6.472;2022-12-18T00:08:03;-10.10;99.90
15364;DHT22;7781;49.690;6.472;2022-12-18T00:10:35;-10.20;99.90
15364;DHT22;7781;49.690;6.472;2022-12-18T00:13:04;-10.20;99.90
15364;DHT22;7781;49.690;6.472;2022-12-18T00:15:37;-10.20;99.90
15364;DHT22;7781;49.690;6.472;2022-12-18T00:18:09;-10.30;99.90
15364;DHT22;7781;49.690;6.472;2022-12-18T00:20:45;-10.40;99.90
15364;DHT22;7781;49.690;6.472;2022-12-18T00:23:14;-10.40;99.90
15364;DHT22;7781;49.690;6.472;2022-12-18T00:25:44;-10.40;99.90
15364;DHT22;7781;49.690;6.472;2022-12-18T00:28:13;-10.40;99.90
15364;DHT22;7781;49.690;6.472;2022-12-18T00:30:42;-10.50;99.90
15364;DHT22;7781;49.690;6.472;2022-12-18T00:33:12;-10.50;99.90
15364;DHT22;7781;49.690;6.472;2022-12-18T00:35:41;-10.50;99.90
15364;DHT22;7781;49.690;6.472;2022-12-18T00:38:10;-10.50;99.90
15364;DHT22;7781;49.690;6.472;2022-12-18T00:40:40;-10.50;99.90
15364;DHT22;7781;49.690;6.472;2022-12-18T00:43:09;-10.50;99.90
15364;DHT22;7781;49.690;6.472;2022-12-18T00:45:37;-10.50;99.90
15364;DHT22;7781;49.690;6.472;2022-12-18T00:48:07;-10.50;99.90
15364;DHT22;7781;49.690;6.472;2022-12-18T00:50:37;-10.50;99.90
15364;DHT22;7781;49.690;6.472;2022-12-18T00:53:07;-10.50;99.90
15364;DHT22;7781;49.690;6.472;2022-12-18T00:55:39;-10.50;99.90
15364;DHT22;7781;49.690;6.472;2022-12-18T00:58:09;-10.50;99.90
15364;DHT22;7781;49.690;6.472;2022-12-18T01:00:40;-10.60;99.90
15364;DHT22;7781;49.690;6.472;2022-12-18T01:03:13;-10.60;99.90
15364;DHT22;7781;49.690;6.472;2022-12-18T01:05:45;-10.50;99.90
15364;DHT22;7781;49.690;6.472;2022-12-18T01:08:14;-10.50;99.90
15364;DHT22;7781;49.690;6.472;2022-12-18T01:10:43;-10.40;99.90
15364;DHT22;7781;49.690;6.472;2022-12-18T01:13:13;-10.40;99.90
15364;DHT22;7781;49.690;6.472;2022-12-18T01:15:49;-10.40;99.90
15364;DHT22;7781;49.690;6.472;2022-12-18T01:18:18;-10.40;99.90
15364;DHT22;7781;49.690;6.472;2022-12-18T01:20:49;-10.30;99.90
15364;DHT22;7781;49.690;6.472;2022-12-18T01:23:17;-10.40;99.90
15364;DHT22;7781;49.690;6.472;2022-12-18T01:25:48;-10.40;99.90
15364;DHT22;7781;49.690;6.472;2022-12-18T01:28:17;-10.50;99.90
15364;DHT22;7781;49.690;6.472;2022-12-18T01:30:48;-10.40;99.90
15364;DHT22;7781;49.690;6.472;2022-12-18T01:33:17;-10.50;99.90
15364;DHT22;7781;49.690;6.472;2022-12-18T01:35:45;-10.50;99.90
15364;DHT22;7781;49.690;6.472;2022-12-18T01:38:19;-10.50;99.90
15364;DHT22;7781;49.690;6.472;2022-12-18T01:40:48;-10.50;99.90
15364;DHT22;7781;49.690;6.472;2022-12-18T01:43:17;-10.50;99.90
15364;DHT22;7781;49.690;6.472;2022-12-18T01:45:47;-10.60;99.90
15364;DHT22;7781;49.690;6.472;2022-12-18T01:48:16;-10.60;99.90
15364;DHT22;7781;49.690;6.472;2022-12-18T01:50:46;-10.60;99.90
15364;DHT22;7781;49.690;6.472;2022-12-18T01:53:21;-10.70;99.90
15364;DHT22;7781;49.690;6.472;2022-12-18T01:55:53;-10.80;99.90
15364;DHT22;7781;49.690;6.472;2022-12-18T01:58:27;-10.80;99.90
15364;DHT22;7781;49.690;6.472;2022-12-18T02:00:59;-10.90;99.90
15364;DHT22;7781;49.690;6.472;2022-12-18T02:03:28;-10.90;99.90
15364;DHT22;7781;49.690;6.472;2022-12-18T02:06:00;-10.90;99.90
15364;DHT22;7781;49.690;6.472;2022-12-18T02:08:42;-11.00;99.90
15364;DHT22;7781;49.690;6.472;2022-12-18T02:11:19;-11.10;99.90
15364;DHT22;7781;49.690;6.472;2022-12-18T02:13:55;-11.10;99.90
15364;DHT22;7781;49.690;6.472;2022-12-18T02:16:33;-11.10;99.90
15364;DHT22;7781;49.690;6.472;2022-12-18T02:19:37;-11.10;99.90
15364;DHT22;7781;49.690;6.472;2022-12-18T02:22:32;-11.10;99.90
15364;DHT22;7781;49.690;6.472;2022-12-18T02:25:16;-11.10;99.90
15364;DHT22;7781;49.690;6.472;2022-12-18T02:27:51;-11.20;99.90
15364;DHT22;7781;49.690;6.472;2022-12-18T02:30:21;-11.20;99.90
15364;DHT22;7781;49.690;6.472;2022-12-18T02:32:52;-11.20;99.90
15364;DHT22;7781;49.690;6.472;2022-12-18T02:35:25;-11.20;99.90
15364;DHT22;7781;49.690;6.472;2022-12-18T02:37:59;-11.20;99.90
15364;DHT22;7781;49.690;6.472;2022-12-18T02:40:30;-11.30;99.90
15364;DHT22;7781;49.690;6.472;2022-12-18T02:43:07;-11.30;99.90
15364;DHT22;7781;49.690;6.472;2022-12-18T02:45:47;-11.30;99.90
15364;DHT22;7781;49.690;6.472;2022-12-18T02:48:18;-11.30;99.90
15364;DHT22;7781;49.690;6.472;2022-12-18T02:50:53;-11.40;99.90
15364;DHT22;7781;49.690;6.472;2022-12-18T02:53:32;-11.50;99.90
15364;DHT22;7781;49.690;6.472;2022-12-18T02:56:09;-11.50;99.90
15364;DHT22;7781;49.690;6.472;2022-12-18T02:58:49;-11.50;99.90
15364;DHT22;7781;49.690;6.472;2022-12-18T03:01:38;-11.50;99.90
15364;DHT22;7781;49.690;6.472;2022-12-18T03:04:14;-11.50;99.90
15364;DHT22;7781;49.690;6.472;2022-12-18T03:06:49;-11.40;99.90
15364;DHT22;7781;49.690;6.472;2022-12-18T03:09:21;-11.50;99.90
15364;DHT22;7781;49.690;6.472;2022-12-18T03:11:56;-11.40;99.90
15364;DHT22;7781;49.690;6.472;2022-12-18T03:14:48;-11.40;99.90
15364;DHT22;7781;49.690;6.472;2022-12-18T03:17:19;-11.50;99.90
15364;DHT22;7781;49.690;6.472;2022-12-18T03:19:52;-11.50;99.90
15364;DHT22;7781;49.690;6.472;2022-12-18T03:22:24;-11.40;99.90
15364;DHT22;7781;49.690;6.472;2022-12-18T03:24:57;-11.40;99.90
15364;DHT22;7781;49.690;6.472;2022-12-18T03:27:29;-11.40;99.90
15364;DHT22;7781;49.690;6.472;2022-12-18T03:30:09;-11.40;99.90
15364;DHT22;7781;49.690;6.472;2022-12-18T03:32:44;-11.40;99.90
15364;DHT22;7781;49.690;6.472;2022-12-18T03:35:21;-11.40;99.90
15364;DHT22;7781;49.690;6.472;2022-12-18T03:37:53;-11.40;99.90
15364;DHT22;7781;49.690;6.472;2022-12-18T03:40:26;-11.40;99.90
15364;DHT22;7781;49.690;6.472;2022-12-18T03:43:03;-11.40;99.90
15364;DHT22;7781;49.690;6.472;2022-12-18T03:45:40;-11.40;99.90
15364;DHT22;7781;49.690;6.472;2022-12-18T03:48:17;-11.40;99.90
15364;DHT22;7781;49.690;6.472;2022-12-18T03:50:52;-11.40;99.90
15364;DHT22;7781;49.690;6.472;2022-12-18T03:53:32;-11.50;99.90
15364;DHT22;7781;49.690;6.472;2022-12-18T03:56:06;-11.40;99.90
15364;DHT22;7781;49.690;6.472;2022-12-18T03:58:40;-11.40;99.90
15364;DHT22;7781;49.690;6.472;2022-12-18T04:01:25;-11.50;99.90
15364;DHT22;7781;49.690;6.472;2022-12-18T04:03:57;-11.40;99.90
15364;DHT22;7781;49.690;6.472;2022-12-18T04:06:29;-11.50;99.90
15364;DHT22;7781;49.690;6.472;2022-12-18T04:09:01;-11.50;99.90
15364;DHT22;7781;49.690;6.472;2022-12-18T04:11:35;-11.60;99.90
15364;DHT22;7781;49.690;6.472;2022-12-18T04:14:05;-11.70;99.90
15364;DHT22;7781;49.690;6.472;2022-12-18T04:16:39;-11.70;99.90
15364;DHT22;7781;49.690;6.472;2022-12-18T04:19:12;-11.70;99.90
15364;DHT22;7781;49.690;6.472;2022-12-18T04:21:44;-11.70;99.90
15364;DHT22;7781;49.690;6.472;2022-12-18T04:24:15;-11.70;99.90
15364;DHT22;7781;49.690;6.472;2022-12-18T04:26:54;-11.80;99.90
15364;DHT22;7781;49.690;6.472;2022-12-18T04:29:27;-11.80;99.90
15364;DHT22;7781;49.690;6.472;2022-12-18T04:31:59;-11.80;99.90
15364;DHT22;7781;49.690;6.472;2022-12-18T04:34:30;-11.70;99.90
15364;DHT22;7781;49.690;6.472;2022-12-18T04:37:00;-11.80;99.90
15364;DHT22;7781;49.690;6.472;2022-12-18T04:39:29;-11.80;99.90
15364;DHT22;7781;49.690;6.472;2022-12-18T04:42:04;-11.70;99.90
15364;DHT22;7781;49.690;6.472;2022-12-18T04:44:34;-11.60;99.90
15364;DHT22;7781;49.690;6.472;2022-12-18T04:47:05;-11.70;99.90
15364;DHT22;7781;49.690;6.472;2022-12-18T04:49:35;-11.70;99.90
15364;DHT22;7781;49.690;6.472;2022-12-18T04:52:10;-11.70;99.90
15364;DHT22;7781;49.690;6.472;2022-12-18T04:54:39;-11.70;99.90
15364;DHT22;7781;49.690;6.472;2022-12-18T04:57:09;-11.60;99.90
15364;DHT22;7781;49.690;6.472;2022-12-18T04:59:41;-11.60;99.90
15364;DHT22;7781;49.690;6.472;2022-12-18T05:02:12;-11.60;99.90
15364;DHT22;7781;49.690;6.472;2022-12-18T05:04:43;-11.60;99.90
15364;DHT22;7781;49.690;6.472;2022-12-18T05:07:11;-11.70;99.90
15364;DHT22;7781;49.690;6.472;2022-12-18T05:09:40;-11.80;99.90
15364;DHT22;7781;49.690;6.472;2022-12-18T05:12:09;-11.80;99.90
15364;DHT22;7781;49.690;6.472;2022-12-18T05:14:38;-11.80;99.90
15364;DHT22;7781;49.690;6.472;2022-12-18T05:17:06;-11.80;99.90
15364;DHT22;7781;49.690;6.472;2022-12-18T05:19:37;-11.90;99.90
15364;DHT22;7781;49.690;6.472;2022-12-18T05:22:09;-11.90;99.90
15364;DHT22;7781;49.690;6.472;2022-12-18T05:24:39;-11.80;99.90
15364;DHT22;7781;49.690;6.472;2022-12-18T05:27:07;-11.90;99.90
15364;DHT22;7781;49.690;6.472;2022-12-18T05:29:36;-11.90;99.90
15364;DHT22;7781;49.690;6.472;2022-12-18T05:32:07;-11.90;99.90
15364;DHT22;7781;49.690;6.472;2022-12-18T05:34:38;-11.90;99.90
15364;DHT22;7781;49.690;6.472;2022-12-18T05:37:07;-11.80;99.90
15364;DHT22;7781;49.690;6.472;2022-12-18T05:39:36;-11.80;99.90
15364;DHT22;7781;49.690;6.472;2022-12-18T05:42:05;-11.80;99.90
15364;DHT22;7781;49.690;6.472;2022-12-18T05:44:33;-11.80;99.90
15364;DHT22;7781;49.690;6.472;2022-12-18T05:47:02;-11.80;99.90
15364;DHT22;7781;49.690;6.472;2022-12-18T05:49:33;-11.80;99.90
15364;DHT22;7781;49.690;6.472;2022-12-18T05:52:04;-11.70;99.90
15364;DHT22;7781;49.690;6.472;2022-12-18T05:54:33;-11.70;99.90
15364;DHT22;7781;49.690;6.472;2022-12-18T05:57:02;-11.70;99.90
15364;DHT22;7781;49.690;6.472;2022-12-18T05:59:32;-11.60;99.90
15364;DHT22;7781;49.690;6.472;2022-12-18T06:02:01;-11.60;99.90
15364;DHT22;7781;49.690;6.472;2022-12-18T06:04:30;-11.70;99.90
15364;DHT22;7781;49.690;6.472;2022-12-18T06:06:59;-11.70;99.90
15364;DHT22;7781;49.690;6.472;2022-12-18T06:09:36;-11.70;99.90
15364;DHT22;7781;49.690;6.472;2022-12-18T06:12:06;-11.60;99.90
15364;DHT22;7781;49.690;6.472;2022-12-18T06:14:35;-11.60;99.90
15364;DHT22;7781;49.690;6.472;2022-12-18T06:17:06;-11.60;99.90
15364;DHT22;7781;49.690;6.472;2022-12-18T06:19:35;-11.50;99.90
15364;DHT22;7781;49.690;6.472;2022-12-18T06:22:04;-11.60;99.90
15364;DHT22;7781;49.690;6.472;2022-12-18T06:24:33;-11.50;99.90
15364;DHT22;7781;49.690;6.472;2022-12-18T06:27:04;-11.50;99.90
15364;DHT22;7781;49.690;6.472;2022-12-18T06:29:35;-11.50;99.90
15364;DHT22;7781;49.690;6.472;2022-12-18T06:32:04;-11.50;99.90
15364;DHT22;7781;49.690;6.472;2022-12-18T06:34:34;-11.50;99.90
15364;DHT22;7781;49.690;6.472;2022-12-18T06:37:03;-11.50;99.90
15364;DHT22;7781;49.690;6.472;2022-12-18T06:39:33;-11.50;99.90
15364;DHT22;7781;49.690;6.472;2022-12-18T06:42:05;-11.60;99.90
15364;DHT22;7781;49.690;6.472;2022-12-18T06:44:34;-11.60;99.90
15364;DHT22;7781;49.690;6.472;2022-12-18T06:47:04;-11.50;99.90
15364;DHT22;7781;49.690;6.472;2022-12-18T06:49:33;-11.60;99.90
15364;DHT22;7781;49.690;6.472;2022-12-18T06:52:02;-11.60;99.90
15364;DHT22;7781;49.690;6.472;2022-12-18T06:54:31;-11.60;99.90
15364;DHT22;7781;49.690;6.472;2022-12-18T06:56:59;-11.60;99.90
15364;DHT22;7781;49.690;6.472;2022-12-18T06:59:32;-11.60;99.90
15364;DHT22;7781;49.690;6.472;2022-12-18T07:02:03;-11.60;99.90
15364;DHT22;7781;49.690;6.472;2022-12-18T07:04:33;-11.60;99.90
15364;DHT22;7781;49.690;6.472;2022-12-18T07:07:01;-11.60;99.90
15364;DHT22;7781;49.690;6.472;2022-12-18T07:09:31;-11.60;99.90
15364;DHT22;7781;49.690;6.472;2022-12-18T07:12:01;-11.70;99.90
15364;DHT22;7781;49.690;6.472;2022-12-18T07:14:34;-11.70;99.90
15364;DHT22;7781;49.690;6.472;2022-12-18T07:17:05;-11.80;99.90
15364;DHT22;7781;49.690;6.472;2022-12-18T07:19:34;-11.80;99.90
15364;DHT22;7781;49.690;6.472;2022-12-18T07:22:03;-11.70;99.90
15364;DHT22;7781;49.690;6.472;2022-12-18T07:24:32;-11.70;99.90
15364;DHT22;7781;49.690;6.472;2022-12-18T07:27:02;-11.70;99.90
15364;DHT22;7781;49.690;6.472;2022-12-18T07:29:35;-11.70;99.90
15364;DHT22;7781;49.690;6.472;2022-12-18T07:32:05;-11.70;99.90
15364;DHT22;7781;49.690;6.472;2022-12-18T07:34:36;-11.70;99.90
15364;DHT22;7781;49.690;6.472;2022-12-18T07:37:05;-11.60;99.90
15364;DHT22;7781;49.690;6.472;2022-12-18T07:39:34;-11.60;99.90
15364;DHT22;7781;49.690;6.472;2022-12-18T07:42:04;-11.60;99.90
15364;DHT22;7781;49.690;6.472;2022-12-18T07:44:53;-11.50;99.90
15364;DHT22;7781;49.690;6.472;2022-12-18T07:47:23;-11.50;99.90
15364;DHT22;7781;49.690;6.472;2022-12-18T07:49:52;-11.40;99.90
15364;DHT22;7781;49.690;6.472;2022-12-18T07:52:22;-11.30;99.90
15364;DHT22;7781;49.690;6.472;2022-12-18T07:54:52;-11.20;99.90
15364;DHT22;7781;49.690;6.472;2022-12-18T07:57:22;-11.10;99.90
15364;DHT22;7781;49.690;6.472;2022-12-18T08:00:15;-11.00;99.90
15364;DHT22;7781;49.690;6.472;2022-12-18T08:02:44;-10.90;99.90
15364;DHT22;7781;49.690;6.472;2022-12-18T08:05:14;-10.90;99.90
15364;DHT22;7781;49.690;6.472;2022-12-18T08:07:44;-10.80;99.90
15364;DHT22;7781;49.690;6.472;2022-12-18T08:10:13;-10.80;99.90
15364;DHT22;7781;49.690;6.472;2022-12-18T08:12:41;-10.70;99.90
15364;DHT22;7781;49.690;6.472;2022-12-18T08:15:10;-10.60;99.90
15364;DHT22;7781;49.690;6.472;2022-12-18T08:17:42;-10.60;99.90
15364;DHT22;7781;49.690;6.472;2022-12-18T08:20:12;-10.60;99.90
15364;DHT22;7781;49.690;6.472;2022-12-18T08:22:42;-10.50;99.90
15364;DHT22;7781;49.690;6.472;2022-12-18T08:25:11;-10.40;99.90
15364;DHT22;7781;49.690;6.472;2022-12-18T08:27:40;-10.30;99.90
15364;DHT22;7781;49.690;6.472;2022-12-18T08:30:10;-10.30;99.90
15364;DHT22;7781;49.690;6.472;2022-12-18T08:32:39;-10.30;99.90
15364;DHT22;7781;49.690;6.472;2022-12-18T08:35:10;-10.20;99.90
15364;DHT22;7781;49.690;6.472;2022-12-18T08:37:45;-10.20;99.90
15364;DHT22;7781;49.690;6.472;2022-12-18T08:40:15;-10.30;99.90
15364;DHT22;7781;49.690;6.472;2022-12-18T08:42:45;-10.20;99.90
15364;DHT22;7781;49.690;6.472;2022-12-18T08:45:33;-10.20;99.90
15364;DHT22;7781;49.690;6.472;2022-12-18T08:48:05;-10.20;99.90
15364;DHT22;7781;49.690;6.472;2022-12-18T08:50:36;-10.20;99.90
15364;DHT22;7781;49.690;6.472;2022-12-18T08:53:10;-10.10;99.90
15364;DHT22;7781;49.690;6.472;2022-12-18T08:55:39;-10.10;99.90
15364;DHT22;7781;49.690;6.472;2022-12-18T08:58:16;-10.00;99.90
15364;DHT22;7781;49.690;6.472;2022-12-18T09:00:45;-10.00;99.90
15364;DHT22;7781;49.690;6.472;2022-12-18T09:03:19;-9.90;99.90
15364;DHT22;7781;49.690;6.472;2022-12-18T09:05:51;-9.90;99.90
15364;DHT22;7781;49.690;6.472;2022-12-18T09:08:19;-9.90;99.90
15364;DHT22;7781;49.690;6.472;2022-12-18T09:10:49;-9.80;99.90
15364;DHT22;7781;49.690;6.472;2022-12-18T09:13:20;-9.80;99.90
15364;DHT22;7781;49.690;6.472;2022-12-18T09:15:51;-9.70;99.90
15364;DHT22;7781;49.690;6.472;2022-12-18T09:18:23;-9.70;99.90
15364;DHT22;7781;49.690;6.472;2022-12-18T09:20:53;-9.60;99.90
15364;DHT22;7781;49.690;6.472;2022-12-18T09:23:21;-9.40;99.90
15364;DHT22;7781;49.690;6.472;2022-12-18T09:25:58;-9.30;99.90
15364;DHT22;7781;49.690;6.472;2022-12-18T09:28:27;-9.20;99.90
15364;DHT22;7781;49.690;6.472;2022-12-18T09:30:56;-9.00;99.90
15364;DHT22;7781;49.690;6.472;2022-12-18T09:33:27;-9.00;99.90
15364;DHT22;7781;49.690;6.472;2022-12-18T09:35:57;-8.80;99.90
15364;DHT22;7781;49.690;6.472;2022-12-18T09:38:25;-8.70;99.90
15364;DHT22;7781;49.690;6.472;2022-12-18T09:40:57;-8.60;99.90
15364;DHT22;7781;49.690;6.472;2022-12-18T09:43:31;-8.50;99.90
15364;DHT22;7781;49.690;6.472;2022-12-18T09:46:07;-8.30;99.90
15364;DHT22;7781;49.690;6.472;2022-12-18T09:48:40;-8.20;99.90
15364;DHT22;7781;49.690;6.472;2022-12-18T09:51:15;-8.10;99.90
15364;DHT22;7781;49.690;6.472;2022-12-18T09:53:50;-8.00;99.90
15364;DHT22;7781;49.690;6.472;2022-12-18T09:56:21;-7.90;99.90
15364;DHT22;7781;49.690;6.472;2022-12-18T09:58:57;-7.80;99.90
15364;DHT22;7781;49.690;6.472;2022-12-18T10:01:27;-7.60;99.90
15364;DHT22;7781;49.690;6.472;2022-12-18T10:04:09;-7.50;99.90
15364;DHT22;7781;49.690;6.472;2022-12-18T10:06:44;-7.40;99.90
15364;DHT22;7781;49.690;6.472;2022-12-18T10:09:21;-7.30;99.90
15364;DHT22;7781;49.690;6.472;2022-12-18T10:11:58;-7.10;99.90
15364;DHT22;7781;49.690;6.472;2022-12-18T10:14:40;-7.00;99.90
15364;DHT22;7781;49.690;6.472;2022-12-18T10:17:17;-6.90;99.90
15364;DHT22;7781;49.690;6.472;2022-12-18T10:19:57;-6.80;99.90
15364;DHT22;7781;49.690;6.472;2022-12-18T10:22:40;-6.60;99.90
15364;DHT22;7781;49.690;6.472;2022-12-18T10:25:20;-6.50;99.90
15364;DHT22;7781;49.690;6.472;2022-12-18T10:27:52;-6.40;99.90
15364;DHT22;7781;49.690;6.472;2022-12-18T10:30:23;-6.40;99.90
15364;DHT22;7781;49.690;6.472;2022-12-18T10:32:52;-6.30;99.90
15364;DHT22;7781;49.690;6.472;2022-12-18T10:35:23;-6.20;99.90
15364;DHT22;7781;49.690;6.472;2022-12-18T10:38:22;-6.20;99.90
15364;DHT22;7781;49.690;6.472;2022-12-18T10:40:54;-6.10;99.90
15364;DHT22;7781;49.690;6.472;2022-12-18T10:43:27;-6.00;99.90
15364;DHT22;7781;49.690;6.472;2022-12-18T10:46:05;-5.80;99.90
15364;DHT22;7781;49.690;6.472;2022-12-18T10:48:40;-5.70;99.90
15364;DHT22;7781;49.690;6.472;2022-12-18T10:51:19;-5.60;99.90
15364;DHT22;7781;49.690;6.472;2022-12-18T10:53:55;-5.60;99.90
15364;DHT22;7781;49.690;6.472;2022-12-18T10:56:27;-5.50;99.90
15364;DHT22;7781;49.690;6.472;2022-12-18T10:58:59;-5.50;99.90
15364;DHT22;7781;49.690;6.472;2022-12-18T11:01:45;-5.40;99.90
15364;DHT22;7781;49.690;6.472;2022-12-18T11:04:17;-5.30;99.90
15364;DHT22;7781;49.690;6.472;2022-12-18T11:06:58;-5.20;99.90
15364;DHT22;7781;49.690;6.472;2022-12-18T11:09:30;-5.20;99.90
15364;DHT22;7781;49.690;6.472;2022-12-18T11:12:02;-5.10;99.90
15364;DHT22;7781;49.690;6.472;2022-12-18T11:14:35;-5.00;99.90
15364;DHT22;7781;49.690;6.472;2022-12-18T11:17:18;-5.00;99.90
15364;DHT22;7781;49.690;6.472;2022-12-18T11:19:53;-4.90;99.90
15364;DHT22;7781;49.690;6.472;2022-12-18T11:22:25;-4.80;99.90
15364;DHT22;7781;49.690;6.472;2022-12-18T11:24:59;-4.70;99.90
15364;DHT22;7781;49.690;6.472;2022-12-18T11:27:49;-4.60;99.90
15364;DHT22;7781;49.690;6.472;2022-12-18T11:30:24;-4.60;99.90
15364;DHT22;7781;49.690;6.472;2022-12-18T11:33:04;-4.60;99.90
15364;DHT22;7781;49.690;6.472;2022-12-18T11:35:38;-4.50;99.90
15364;DHT22;7781;49.690;6.472;2022-12-18T11:38:17;-4.40;99.90
15364;DHT22;7781;49.690;6.472;2022-12-18T11:40:53;-4.30;99.90
15364;DHT22;7781;49.690;6.472;2022-12-18T11:43:27;-4.30;99.90
15364;DHT22;7781;49.690;6.472;2022-12-18T11:46:02;-4.20;99.90
15364;DHT22;7781;49.690;6.472;2022-12-18T11:48:36;-4.20;99.90
15364;DHT22;7781;49.690;6.472;2022-12-18T11:51:13;-4.10;99.90
15364;DHT22;7781;49.690;6.472;2022-12-18T11:53:46;-4.10;99.90
15364;DHT22;7781;49.690;6.472;2022-12-18T11:56:29;-4.00;99.90
15364;DHT22;7781;49.690;6.472;2022-12-18T11:59:08;-4.00;99.90
15364;DHT22;7781;49.690;6.472;2022-12-18T12:01:48;-3.90;99.90
15364;DHT22;7781;49.690;6.472;2022-12-18T12:05:01;-3.80;99.90
15364;DHT22;7781;49.690;6.472;2022-12-18T12:07:43;-3.70;99.90
15364;DHT22;7781;49.690;6.472;2022-12-18T12:10:32;-3.60;99.90
15364;DHT22;7781;49.690;6.472;2022-12-18T12:13:19;-3.60;99.90
15364;DHT22;7781;49.690;6.472;2022-12-18T12:16:05;-3.60;99.90
15364;DHT22;7781;49.690;6.472;2022-12-18T12:18:43;-3.60;99.90
15364;DHT22;7781;49.690;6.472;2022-12-18T12:21:21;-3.50;99.90
15364;DHT22;7781;49.690;6.472;2022-12-18T12:23:58;-3.50;99.90
15364;DHT22;7781;49.690;6.472;2022-12-18T12:26:34;-3.40;99.90
15364;DHT22;7781;49.690;6.472;2022-12-18T12:29:18;-3.30;99.90
15364;DHT22;7781;49.690;6.472;2022-12-18T12:32:03;-3.30;99.90
15364;DHT22;7781;49.690;6.472;2022-12-18T12:34:41;-3.30;99.90
15364;DHT22;7781;49.690;6.472;2022-12-18T12:37:22;-3.30;99.90
15364;DHT22;7781;49.690;6.472;2022-12-18T12:39:54;-3.30;99.90
15364;DHT22;7781;49.690;6.472;2022-12-18T12:42:29;-3.20;99.90
15364;DHT22;7781;49.690;6.472;2022-12-18T12:45:25;-3.20;99.90
15364;DHT22;7781;49.690;6.472;2022-12-18T12:47:58;-3.20;99.90
15364;DHT22;7781;49.690;6.472;2022-12-18T12:50:27;-3.20;99.90
15364;DHT22;7781;49.690;6.472;2022-12-18T12:52:57;-3.10;99.90
15364;DHT22;7781;49.690;6.472;2022-12-18T12:55:28;-3.10;99.90
15364;DHT22;7781;49.690;6.472;2022-12-18T12:58:02;-3.10;99.90
15364;DHT22;7781;49.690;6.472;2022-12-18T13:00:44;-3.10;99.90
15364;DHT22;7781;49.690;6.472;2022-12-18T13:03:34;-3.00;99.90
15364;DHT22;7781;49.690;6.472;2022-12-18T13:06:14;-3.10;99.90
15364;DHT22;7781;49.690;6.472;2022-12-18T13:08:55;-3.00;99.90
15364;DHT22;7781;49.690;6.472;2022-12-18T13:11:30;-3.00;99.90
15364;DHT22;7781;49.690;6.472;2022-12-18T13:14:29;-3.00;99.90
15364;DHT22;7781;49.690;6.472;2022-12-18T13:20:11;-3.10;99.90
15364;DHT22;7781;49.690;6.472;2022-12-18T13:22:45;-3.00;99.90
15364;DHT22;7781;49.690;6.472;2022-12-18T13:25:33;-3.00;99.90
15364;DHT22;7781;49.690;6.472;2022-12-18T13:28:08;-2.90;99.90
15364;DHT22;7781;49.690;6.472;2022-12-18T13:30:54;-2.90;99.90
15364;DHT22;7781;49.690;6.472;2022-12-18T13:33:50;-2.90;99.90
15364;DHT22;7781;49.690;6.472;2022-12-18T13:36:41;-2.80;99.90
15364;DHT22;7781;49.690;6.472;2022-12-18T13:39:22;-2.80;99.90
15364;DHT22;7781;49.690;6.472;2022-12-18T13:42:34;-2.70;99.90
15364;DHT22;7781;49.690;6.472;2022-12-18T13:45:58;-2.70;99.90
15364;DHT22;7781;49.690;6.472;2022-12-18T13:48:31;-2.70;99.90
15364;DHT22;7781;49.690;6.472;2022-12-18T13:51:03;-2.70;99.90
15364;DHT22;7781;49.690;6.472;2022-12-18T13:53:38;-2.70;99.90
15364;DHT22;7781;49.690;6.472;2022-12-18T13:56:08;-2.70;99.90
15364;DHT22;7781;49.690;6.472;2022-12-18T13:58:37;-2.70;99.90
15364;DHT22;7781;49.690;6.472;2022-12-18T14:01:21;-2.70;99.90
15364;DHT22;7781;49.690;6.472;2022-12-18T14:03:50;-2.70;99.90
15364;DHT22;7781;49.690;6.472;2022-12-18T14:06:22;-2.70;99.90
15364;DHT22;7781;49.690;6.472;2022-12-18T14:08:52;-2.70;99.90
15364;DHT22;7781;49.690;6.472;2022-12-18T14:11:23;-2.70;99.90
15364;DHT22;7781;49.690;6.472;2022-12-18T14:13:53;-2.70;99.90
15364;DHT22;7781;49.690;6.472;2022-12-18T14:16:22;-2.70;99.90
15364;DHT22;7781;49.690;6.472;2022-12-18T14:18:53;-2.70;99.90
15364;DHT22;7781;49.690;6.472;2022-12-18T14:21:37;-2.70;99.90
15364;DHT22;7781;49.690;6.472;2022-12-18T14:24:16;-2.70;99.90
15364;DHT22;7781;49.690;6.472;2022-12-18T14:26:46;-2.80;99.90
15364;DHT22;7781;49.690;6.472;2022-12-18T14:29:34;-2.80;99.90
15364;DHT22;7781;49.690;6.472;2022-12-18T14:32:10;-2.80;99.90
15364;DHT22;7781;49.690;6.472;2022-12-18T14:34:46;-2.80;99.90
15364;DHT22;7781;49.690;6.472;2022-12-18T14:37:22;-2.80;99.90
15364;DHT22;7781;49.690;6.472;2022-12-18T14:39:54;-2.90;99.90
15364;DHT22;7781;49.690;6.472;2022-12-18T14:42:25;-2.90;99.90
15364;DHT22;7781;49.690;6.472;2022-12-18T14:45:33;-3.00;99.90
15364;DHT22;7781;49.690;6.472;2022-12-18T14:48:14;-3.00;99.90
15364;DHT22;7781;49.690;6.472;2022-12-18T14:51:01;-3.00;99.90
15364;DHT22;7781;49.690;6.472;2022-12-18T14:53:53;-3.10;99.90
15364;DHT22;7781;49.690;6.472;2022-12-18T14:56:27;-3.10;99.90
15364;DHT22;7781;49.690;6.472;2022-12-18T14:58:57;-3.10;99.90
15364;DHT22;7781;49.690;6.472;2022-12-18T15:01:29;-3.10;99.90
15364;DHT22;7781;49.690;6.472;2022-12-18T15:04:00;-3.10;99.90
15364;DHT22;7781;49.690;6.472;2022-12-18T15:06:32;-3.10;99.90
15364;DHT22;7781;49.690;6.472;2022-12-18T15:09:03;-3.20;99.90
15364;DHT22;7781;49.690;6.472;2022-12-18T15:11:45;-3.30;99.90
15364;DHT22;7781;49.690;6.472;2022-12-18T15:14:31;-3.30;99.90
15364;DHT22;7781;49.690;6.472;2022-12-18T15:17:05;-3.40;99.90
15364;DHT22;7781;49.690;6.472;2022-12-18T15:19:38;-3.50;99.90
15364;DHT22;7781;49.690;6.472;2022-12-18T15:22:29;-3.50;99.90
15364;DHT22;7781;49.690;6.472;2022-12-18T15:24:58;-3.60;99.90
15364;DHT22;7781;49.690;6.472;2022-12-18T15:27:33;-3.60;99.90
15364;DHT22;7781;49.690;6.472;2022-12-18T15:30:22;-3.70;99.90
15364;DHT22;7781;49.690;6.472;2022-12-18T15:32:51;-3.80;99.90
15364;DHT22;7781;49.690;6.472;2022-12-18T15:35:22;-3.90;99.90
15364;DHT22;7781;49.690;6.472;2022-12-18T15:37:52;-3.90;99.90
15364;DHT22;7781;49.690;6.472;2022-12-18T15:40:22;-4.00;99.90
15364;DHT22;7781;49.690;6.472;2022-12-18T15:42:54;-4.10;99.90
15364;DHT22;7781;49.690;6.472;2022-12-18T15:45:41;-4.10;99.90
15364;DHT22;7781;49.690;6.472;2022-12-18T15:48:19;-4.20;99.90
15364;DHT22;7781;49.690;6.472;2022-12-18T15:50:50;-4.30;99.90
15364;DHT22;7781;49.690;6.472;2022-12-18T15:53:19;-4.30;99.90
15364;DHT22;7781;49.690;6.472;2022-12-18T15:55:49;-4.30;99.90
15364;DHT22;7781;49.690;6.472;2022-12-18T15:58:36;-4.30;99.90
15364;DHT22;7781;49.690;6.472;2022-12-18T16:01:06;-4.30;99.90
15364;DHT22;7781;49.690;6.472;2022-12-18T16:03:36;-4.30;99.90
15364;DHT22;7781;49.690;6.472;2022-12-18T16:06:07;-4.30;99.90
15364;DHT22;7781;49.690;6.472;2022-12-18T16:08:37;-4.30;99.90
15364;DHT22;7781;49.690;6.472;2022-12-18T16:11:20;-4.30;99.90
15364;DHT22;7781;49.690;6.472;2022-12-18T16:14:14;-4.30;99.90
15364;DHT22;7781;49.690;6.472;2022-12-18T16:16:45;-4.30;99.90
15364;DHT22;7781;49.690;6.472;2022-12-18T16:19:13;-4.30;99.90
15364;DHT22;7781;49.690;6.472;2022-12-18T16:21:46;-4.30;99.90
15364;DHT22;7781;49.690;6.472;2022-12-18T16:24:18;-4.20;99.90